Česky Dansk Deutsch English Español Suomi Français Magyar Italiano Nederlands norsk Polski Português svenska Türkçe

 

Het Weer

Sion (Zwitzerland)

05:20, 23 augustus 2016 (GMT)

NWNNE
WE
SWSSE
Home            
Sion Pian Rosa Lausanne Payerne Bern / Belp Neuchatel Geneve-Cointrin Les Eplatures Grenchen Torino / Caselle Milano / Malpensa Lugano Chambery / Aix-Les-Bains Novara / Cameri Torino / Bric Della Croce Monte Bisbino Besancon Bale-Mulhouse Amberieu Belfort Zurich-Kloten Dole Tavaux Milano / Linate

Om een weerknop op uw website of weblog te plaatsen, copieer onderstaande code en plak die in uw pagina. In het eerste vakje staat HTML-code, in het tweede vakje UBB-code.


Add to Google

Details

Wind speed:1 bf, 3 kn, 1.5 m/s, 3.5 miles/h, 5.6 km/h
Wind direction:Variable
Visibility:Greater than 10000 m, 10 km, 32800 ft, 6.2 miles
Clouds:CAVOC
Temperature:14°C, 57°F
Dew-point:10°C, 50°F
Atmospheric pressure:1028 hPa, 771.1 mmHg, 30.36 inHg, 1.015 atm
Relative humidity:76.8 %
METAR:LSGS 230520Z VRB03KT CAVOK 14/10 Q1028

Snelkoppelingen

Actuele weersinformatie van de hele wereld. Voeg locaties toe met het plus (+) symbool. Deze snelkoppelingen kunnen worden toegevoegd aan Google.

Lid van de Technetium groep

website free tracking
StatCounter NetStat W3C Validator

18-01-2022 02:52:33
astro.technetium.be money.technetium.be phote.technetium.be tafeltennistafel.technetium.be www.ligfiets.net